ARA127 DNMM-GOBD
Flight info
| Callsign | ARA127 |
|---|---|
| Flight time | N/A |
| Altitude | 36000 |
| Route | POLTO UL433 ACC UB600 AD UR979 ERIDI ERIDI1A |
| Aircraft | B737/M-SDE2E3FGHIRWXY/LB1 |
Departure
| Time | 2026-05-07 11:21 |
|---|---|
| Airport | Murtala Muhammed International Airport (DNMM) |
Arrival
| Time | N/A |
|---|---|
| Airport | Blaise Diagne International Airport (GOBD) |
| Time | Latitude | Longitude | Altitude | Speed | Heading |
|---|---|---|---|---|---|
| 2026-05-07 11:01 | 6.58449 | 3.33202 | 125 ft | 0 kts | 74° |
| 2026-05-07 11:13 | 6.58448 | 3.33199 | 124 ft | 2 kts | 73° |
| 2026-05-07 11:13 | 6.58443 | 3.33184 | 123 ft | 2 kts | 67° |
| 2026-05-07 11:13 | 6.58435 | 3.33169 | 124 ft | 2 kts | 57° |
| 2026-05-07 11:13 | 6.58425 | 3.33156 | 123 ft | 2 kts | 36° |
| 2026-05-07 11:14 | 6.58410 | 3.33149 | 122 ft | 2 kts | 8° |
| 2026-05-07 11:14 | 6.58396 | 3.33148 | 125 ft | 1 kts | 360° |
| 2026-05-07 11:14 | 6.58394 | 3.33148 | 125 ft | 0 kts | 360° |
| 2026-05-07 11:16 | 6.58408 | 3.33148 | 121 ft | 3 kts | 0° |
| 2026-05-07 11:16 | 6.58437 | 3.33148 | 124 ft | 5 kts | 0° |
| 2026-05-07 11:16 | 6.58484 | 3.33146 | 127 ft | 10 kts | 346° |
| 2026-05-07 11:17 | 6.58523 | 3.33078 | 123 ft | 15 kts | 298° |
| 2026-05-07 11:17 | 6.58624 | 3.33042 | 126 ft | 16 kts | 0° |
| 2026-05-07 11:17 | 6.58735 | 3.33041 | 125 ft | 16 kts | 359° |
| 2026-05-07 11:17 | 6.58841 | 3.33040 | 127 ft | 15 kts | 360° |
| 2026-05-07 11:18 | 6.58943 | 3.33040 | 129 ft | 14 kts | 0° |
| 2026-05-07 11:18 | 6.59040 | 3.33039 | 128 ft | 14 kts | 359° |
| 2026-05-07 11:18 | 6.59134 | 3.33039 | 128 ft | 13 kts | 0° |
| 2026-05-07 11:18 | 6.59223 | 3.33038 | 128 ft | 13 kts | 0° |
| 2026-05-07 11:19 | 6.59311 | 3.33038 | 129 ft | 12 kts | 358° |
| 2026-05-07 11:19 | 6.59396 | 3.33036 | 130 ft | 12 kts | 359° |
| 2026-05-07 11:19 | 6.59481 | 3.33036 | 130 ft | 13 kts | 0° |
| 2026-05-07 11:19 | 6.59576 | 3.33035 | 133 ft | 14 kts | 359° |
| 2026-05-07 11:20 | 6.59658 | 3.32996 | 135 ft | 15 kts | 283° |
| 2026-05-07 11:20 | 6.59644 | 3.32901 | 137 ft | 14 kts | 225° |
| 2026-05-07 11:20 | 6.59584 | 3.32886 | 136 ft | 0 kts | 176° |
| 2026-05-07 11:21 | 6.59487 | 3.32889 | 133 ft | 51 kts | 179° |
| 2026-05-07 11:21 | 6.58785 | 3.32896 | 126 ft | 147 kts | 180° |
| 2026-05-07 11:21 | 6.57648 | 3.32908 | 905 ft | 174 kts | 181° |
| 2026-05-07 11:22 | 6.56389 | 3.32746 | 1975 ft | 188 kts | 201° |
| 2026-05-07 11:22 | 6.55272 | 3.31993 | 2720 ft | 214 kts | 227° |
| 2026-05-07 11:22 | 6.54582 | 3.30597 | 3245 ft | 231 kts | 258° |
| 2026-05-07 11:22 | 6.54504 | 3.28920 | 3854 ft | 241 kts | 268° |
| 2026-05-07 11:23 | 6.54434 | 3.27268 | 4597 ft | 245 kts | 263° |
| 2026-05-07 11:23 | 6.54238 | 3.25459 | 4890 ft | 275 kts | 262° |
| 2026-05-07 11:23 | 6.54000 | 3.23499 | 5644 ft | 284 kts | 262° |
| 2026-05-07 11:23 | 6.53768 | 3.21517 | 6619 ft | 286 kts | 263° |
| 2026-05-07 11:24 | 6.53540 | 3.19510 | 7421 ft | 294 kts | 264° |
| 2026-05-07 11:24 | 6.53320 | 3.17431 | 8131 ft | 304 kts | 264° |
| 2026-05-07 11:24 | 6.53110 | 3.15289 | 8911 ft | 311 kts | 265° |
| 2026-05-07 11:24 | 6.52898 | 3.13097 | 9646 ft | 321 kts | 265° |
| 2026-05-07 11:25 | 6.52686 | 3.10825 | 10268 ft | 332 kts | 265° |
| 2026-05-07 11:25 | 6.52458 | 3.08431 | 10510 ft | 357 kts | 265° |
| 2026-05-07 11:25 | 6.52208 | 3.05854 | 10738 ft | 380 kts | 265° |
| 2026-05-07 11:25 | 6.51947 | 3.03175 | 11294 ft | 389 kts | 264° |
| 2026-05-07 11:26 | 6.51682 | 3.00456 | 12047 ft | 392 kts | 264° |
| 2026-05-07 11:26 | 6.51415 | 2.97718 | 12810 ft | 395 kts | 264° |
| 2026-05-07 11:26 | 6.51145 | 2.94954 | 13541 ft | 399 kts | 264° |
| 2026-05-07 11:26 | 6.50873 | 2.92163 | 14247 ft | 402 kts | 264° |
| 2026-05-07 11:27 | 6.50601 | 2.89364 | 14996 ft | 403 kts | 264° |
| 2026-05-07 11:27 | 6.50331 | 2.86592 | 15739 ft | 404 kts | 264° |
| 2026-05-07 11:27 | 6.50053 | 2.83742 | 16489 ft | 405 kts | 264° |
| 2026-05-07 11:27 | 6.49778 | 2.80920 | 17215 ft | 406 kts | 264° |
| 2026-05-07 11:28 | 6.49505 | 2.78122 | 17892 ft | 409 kts | 264° |
| 2026-05-07 11:28 | 6.49160 | 2.75284 | 18504 ft | 410 kts | 258° |
| 2026-05-07 11:28 | 6.48409 | 2.72512 | 19014 ft | 413 kts | 249° |
| 2026-05-07 11:28 | 6.47422 | 2.69794 | 19543 ft | 415 kts | 248° |
| 2026-05-07 11:29 | 6.46392 | 2.67070 | 20054 ft | 418 kts | 248° |
| 2026-05-07 11:29 | 6.45355 | 2.64327 | 20562 ft | 421 kts | 248° |
| 2026-05-07 11:29 | 6.44322 | 2.61561 | 21059 ft | 424 kts | 248° |
| 2026-05-07 11:29 | 6.43293 | 2.58772 | 21533 ft | 427 kts | 248° |
| 2026-05-07 11:30 | 6.42264 | 2.55959 | 22003 ft | 430 kts | 248° |
| 2026-05-07 11:30 | 6.41231 | 2.53121 | 22469 ft | 433 kts | 248° |
| 2026-05-07 11:30 | 6.40193 | 2.50269 | 22913 ft | 436 kts | 248° |
| 2026-05-07 11:30 | 6.39148 | 2.47395 | 23351 ft | 439 kts | 248° |
| 2026-05-07 11:31 | 6.38097 | 2.44508 | 23724 ft | 442 kts | 248° |
| 2026-05-07 11:31 | 6.37037 | 2.41601 | 24063 ft | 445 kts | 249° |
| 2026-05-07 11:31 | 6.36068 | 2.38641 | 24383 ft | 448 kts | 255° |
| 2026-05-07 11:31 | 6.35480 | 2.35550 | 24716 ft | 451 kts | 260° |
| 2026-05-07 11:32 | 6.34548 | 2.29284 | 25376 ft | 456 kts | 261° |
| 2026-05-07 11:32 | 6.34088 | 2.26116 | 25687 ft | 459 kts | 261° |
| 2026-05-07 11:32 | 6.33615 | 2.22937 | 25998 ft | 461 kts | 261° |
| 2026-05-07 11:33 | 6.33127 | 2.19740 | 26306 ft | 463 kts | 261° |
| 2026-05-07 11:33 | 6.32629 | 2.16536 | 26617 ft | 465 kts | 261° |
| 2026-05-07 11:33 | 6.32123 | 2.13314 | 26924 ft | 468 kts | 261° |
| 2026-05-07 11:33 | 6.31612 | 2.10078 | 27214 ft | 470 kts | 261° |
| 2026-05-07 11:34 | 6.31100 | 2.06831 | 27501 ft | 472 kts | 261° |
| 2026-05-07 11:34 | 6.30584 | 2.03560 | 27784 ft | 474 kts | 261° |
| 2026-05-07 11:34 | 6.30067 | 2.00283 | 28066 ft | 476 kts | 261° |
| 2026-05-07 11:34 | 6.29554 | 1.97031 | 28327 ft | 478 kts | 261° |
| 2026-05-07 11:35 | 6.29027 | 1.93682 | 28596 ft | 480 kts | 261° |
| 2026-05-07 11:35 | 6.28502 | 1.90356 | 28858 ft | 482 kts | 261° |
| 2026-05-07 11:35 | 6.27984 | 1.87071 | 29108 ft | 484 kts | 261° |
| 2026-05-07 11:35 | 6.27456 | 1.83720 | 29358 ft | 486 kts | 261° |
| 2026-05-07 11:36 | 6.26925 | 1.80359 | 29608 ft | 488 kts | 261° |
| 2026-05-07 11:36 | 6.26391 | 1.76985 | 29847 ft | 490 kts | 261° |
| 2026-05-07 11:36 | 6.25854 | 1.73605 | 30064 ft | 491 kts | 261° |
| 2026-05-07 11:36 | 6.25313 | 1.70204 | 30277 ft | 492 kts | 261° |
| 2026-05-07 11:37 | 6.24771 | 1.66809 | 30546 ft | 492 kts | 261° |
| 2026-05-07 11:37 | 6.24231 | 1.63424 | 30913 ft | 489 kts | 261° |
| 2026-05-07 11:37 | 6.23694 | 1.60059 | 31313 ft | 486 kts | 261° |
| 2026-05-07 11:37 | 6.23162 | 1.56720 | 31683 ft | 484 kts | 261° |
| 2026-05-07 11:38 | 6.22629 | 1.53380 | 32009 ft | 483 kts | 261° |
| 2026-05-07 11:38 | 6.22098 | 1.50053 | 32333 ft | 482 kts | 261° |
| 2026-05-07 11:38 | 6.21568 | 1.46727 | 32678 ft | 481 kts | 261° |
| 2026-05-07 11:38 | 6.21039 | 1.43416 | 33059 ft | 479 kts | 261° |
| 2026-05-07 11:39 | 6.20513 | 1.40117 | 33491 ft | 476 kts | 261° |
| 2026-05-07 11:39 | 6.19989 | 1.36840 | 33963 ft | 472 kts | 261° |
| 2026-05-07 11:39 | 6.19470 | 1.33589 | 34317 ft | 471 kts | 261° |
| 2026-05-07 11:39 | 6.18950 | 1.30338 | 34567 ft | 472 kts | 261° |
| 2026-05-07 11:40 | 6.18331 | 1.27096 | 34790 ft | 473 kts | 255° |
| 2026-05-07 11:40 | 6.17281 | 1.23968 | 35050 ft | 473 kts | 246° |
| 2026-05-07 11:40 | 6.15972 | 1.20943 | 35358 ft | 472 kts | 245° |
| 2026-05-07 11:40 | 6.14622 | 1.17941 | 35659 ft | 471 kts | 245° |
| 2026-05-07 11:41 | 6.13279 | 1.14947 | 35935 ft | 470 kts | 245° |
| 2026-05-07 11:41 | 6.10633 | 1.08906 | 35945 ft | 473 kts | 246° |
| 2026-05-07 11:42 | 6.08031 | 1.02858 | 35940 ft | 471 kts | 246° |
| 2026-05-07 11:42 | 6.05507 | 0.96809 | 35951 ft | 469 kts | 249° |
| 2026-05-07 11:43 | 6.03268 | 0.90703 | 35942 ft | 468 kts | 250° |
| 2026-05-07 11:43 | 6.01018 | 0.84573 | 35951 ft | 468 kts | 249° |
| 2026-05-07 11:44 | 5.98721 | 0.78454 | 35956 ft | 468 kts | 249° |
| 2026-05-07 11:44 | 5.96423 | 0.72337 | 35949 ft | 468 kts | 249° |
| 2026-05-07 11:45 | 5.94126 | 0.66216 | 35944 ft | 469 kts | 249° |
| 2026-05-07 11:45 | 5.91828 | 0.60088 | 35942 ft | 470 kts | 249° |
| 2026-05-07 11:46 | 5.89521 | 0.53941 | 35946 ft | 471 kts | 249° |
| 2026-05-07 11:46 | 5.87209 | 0.47785 | 35947 ft | 471 kts | 249° |
| 2026-05-07 11:47 | 5.86442 | 0.45741 | 35947 ft | 471 kts | 249° |